Time;durP1;ratioP1;P1;durP2;ratioP2;P2;SDS_P1;SDS_P2;PMS_P1;PMS_P2;Temp;Humidity;BMP_temperature;BMP_pressure;BME280_temperature;BME280_humidity;BME280_pressure;Samples;Min_cycle;Max_cycle;Signal;HPM_P1;HPM_P2
2023/10/09 00:02:12;;;;;;;11.17;8.87;;;;;;;17.18;67.56;93294.28;5052123;28;20195;-76
2023/10/09 00:04:41;;;;;;;11.50;8.57;;;;;;;17.11;67.82;93306.38;5051092;28;20228;-77
2023/10/09 00:07:10;;;;;;;10.60;9.47;;;;;;;16.82;67.69;93271.72;5050840;28;20221;-77
2023/10/09 00:09:48;;;;;;;10.50;9.50;;;;;;;17.03;67.93;93301.81;5046020;28;20214;-76
2023/10/09 00:12:22;;;;;;;9.17;8.37;;;;;;;16.97;68.21;93303.78;5051694;28;20201;-77
2023/10/09 00:14:52;;;;;;;12.97;8.27;;;;;;;17.02;67.99;93308.97;5051799;28;20213;-77
2023/10/09 00:17:17;;;;;;;12.87;9.07;;;;;;;16.97;67.97;93290.59;5051200;28;20238;-76
2023/10/09 00:19:47;;;;;;;9.27;8.37;;;;;;;17.08;67.61;93301.69;5050969;28;20236;-77
2023/10/09 00:22:29;;;;;;;9.00;8.17;;;;;;;17.04;67.80;93303.38;5051529;28;20217;-75
2023/10/09 00:25:12;;;;;;;9.33;8.10;;;;;;;16.92;68.30;93298.63;5051107;28;20213;-75
2023/10/09 00:27:42;;;;;;;9.40;8.43;;;;;;;16.86;68.39;93294.56;5051324;28;20205;-76
2023/10/09 00:30:15;;;;;;;9.27;8.57;;;;;;;16.84;68.32;93298.59;5051593;28;20197;-77
2023/10/09 00:32:45;;;;;;;9.90;8.87;;;;;;;16.77;68.24;93285.81;5045331;28;20198;-75
2023/10/09 00:35:36;;;;;;;8.97;8.27;;;;;;;16.69;68.58;93286.53;5044149;28;20189;-76
2023/10/09 00:38:06;;;;;;;9.13;8.50;;;;;;;16.73;68.49;93298.03;5050844;28;20226;-78
2023/10/09 00:40:34;;;;;;;8.40;7.93;;;;;;;16.52;68.66;93282.97;5052523;28;20170;-77
2023/10/09 00:43:06;;;;;;;8.63;7.93;;;;;;;16.60;68.56;93296.22;5050287;28;20221;-78
2023/10/09 00:45:32;;;;;;;10.20;9.17;;;;;;;16.44;68.79;93284.47;5051218;28;20214;-77
2023/10/09 00:48:01;;;;;;;9.10;8.60;;;;;;;16.68;68.38;93300.78;5050021;28;20233;-77
2023/10/09 00:50:26;;;;;;;9.13;8.50;;;;;;;16.61;68.30;93294.34;5051197;28;20205;-77
2023/10/09 00:53:04;;;;;;;9.00;8.23;;;;;;;16.55;68.39;93301.63;5049119;28;20186;-77
2023/10/09 00:55:44;;;;;;;9.27;8.60;;;;;;;16.49;68.77;93305.44;5032663;28;20171;-77
2023/10/09 00:58:12;;;;;;;10.60;8.13;;;;;;;16.41;68.73;93300.84;5048471;28;20230;-76
2023/10/09 01:05:56;;;;;;;10.97;8.43;;;;;;;16.23;68.70;93282.53;5044354;28;20173;-76
2023/10/09 01:11:08;;;;;;;9.60;8.97;;;;;;;16.24;68.59;93319.13;5051371;28;20186;-77
2023/10/09 01:16:15;;;;;;;7.97;7.47;;;;;;;16.16;69.03;93317.19;5051030;28;20185;-76
2023/10/09 01:18:41;;;;;;;8.87;8.17;;;;;;;16.11;69.09;93319.91;5049804;28;20232;-76
2023/10/09 01:21:07;;;;;;;9.30;8.50;;;;;;;16.17;69.05;93321.41;5043536;28;20210;-76
2023/10/09 01:23:32;;;;;;;8.33;7.63;;;;;;;16.05;69.06;93323.72;5040577;28;20250;-76
2023/10/09 01:25:58;;;;;;;9.80;9.10;;;;;;;15.99;69.05;93336.22;5047527;28;20205;-77
2023/10/09 01:28:24;;;;;;;8.97;8.17;;;;;;;15.96;69.23;93347.34;5050731;28;20225;-81
2023/10/09 01:30:51;;;;;;;9.70;8.50;;;;;;;15.84;69.02;93338.38;5044930;28;20255;-81
2023/10/09 01:33:24;;;;;;;9.33;8.63;;;;;;;15.76;69.32;93320.63;5043343;28;20242;-83
2023/10/09 01:35:53;;;;;;;8.53;8.13;;;;;;;15.74;69.93;93317.50;5047461;28;20182;-82
2023/10/09 01:38:22;;;;;;;8.77;8.27;;;;;;;15.63;70.00;93327.44;5039396;28;20224;-83
2023/10/09 01:40:51;;;;;;;7.87;7.27;;;;;;;15.57;68.95;93344.41;5050182;28;20250;-82
2023/10/09 01:43:19;;;;;;;9.40;8.57;;;;;;;15.50;68.89;93357.13;5049388;28;20239;-81
2023/10/09 01:45:46;;;;;;;9.07;8.50;;;;;;;15.48;68.68;93361.16;5050735;28;20244;-81
2023/10/09 01:48:14;;;;;;;9.57;8.57;;;;;;;15.34;68.65;93362.94;5049005;28;20231;-83
2023/10/09 01:50:41;;;;;;;8.57;7.83;;;;;;;15.37;68.60;93372.88;5049746;28;20269;-80
2023/10/09 01:53:08;;;;;;;9.83;9.20;;;;;;;15.39;68.74;93376.81;5036538;28;20234;-81
2023/10/09 01:55:38;;;;;;;8.83;8.43;;;;;;;15.38;69.02;93370.00;5040982;28;20205;-82
2023/10/09 02:00:50;;;;;;;8.77;7.90;;;;;;;15.19;69.03;93340.28;5044507;28;20217;-82
2023/10/09 02:03:16;;;;;;;8.27;7.80;;;;;;;15.27;68.97;93363.28;5049772;28;20240;-80
2023/10/09 02:05:45;;;;;;;8.83;8.23;;;;;;;15.14;68.79;93371.94;5044791;28;20182;-80
2023/10/09 02:08:11;;;;;;;8.13;7.63;;;;;;;15.01;68.85;93369.25;5043459;28;20226;-81
2023/10/09 02:10:37;;;;;;;8.63;8.13;;;;;;;14.98;68.57;93362.72;5049271;28;20186;-80
2023/10/09 02:13:11;;;;;;;8.57;7.93;;;;;;;14.94;68.54;93379.34;5047143;28;20229;-81
2023/10/09 02:23:46;;;;;;;8.80;8.10;;;;;;;14.70;67.36;93399.69;5051850;28;20222;-82
2023/10/09 02:26:26;;;;;;;8.40;8.00;;;;;;;14.72;67.27;93390.47;5035067;28;20185;-81
2023/10/09 02:28:58;;;;;;;8.63;8.23;;;;;;;14.59;67.29;93374.59;5042833;28;20226;-82
2023/10/09 02:31:35;;;;;;;9.40;8.70;;;;;;;14.55;67.31;93399.88;5031754;28;20178;-82
2023/10/09 02:34:06;;;;;;;8.70;8.10;;;;;;;14.46;67.71;93389.22;5034643;28;20229;-81
2023/10/09 02:36:31;;;;;;;9.27;8.67;;;;;;;14.44;67.67;93399.25;5044718;28;20696;-79
2023/10/09 02:38:57;;;;;;;8.33;7.80;;;;;;;14.46;68.36;93397.88;5048260;28;20236;-81
2023/10/09 02:41:28;;;;;;;9.70;8.80;;;;;;;14.40;67.67;93401.66;5046822;28;20197;-79
2023/10/09 02:43:58;;;;;;;9.00;8.50;;;;;;;14.52;68.09;93423.03;5037979;28;20243;-81
2023/10/09 02:46:30;;;;;;;8.93;8.53;;;;;;;14.58;67.65;93420.34;5049595;28;20832;-82
2023/10/09 02:49:03;;;;;;;9.63;8.83;;;;;;;14.39;67.59;93431.63;5049421;28;20222;-81
2023/10/09 02:53:57;;;;;;;8.97;8.33;;;;;;;14.14;68.61;93450.25;5048835;28;20283;-81
2023/10/09 02:56:47;;;;;;;8.57;8.07;;;;;;;14.24;68.35;93447.53;5046229;28;20209;-81
2023/10/09 02:59:12;;;;;;;9.00;8.60;;;;;;;14.17;68.43;93441.81;5043020;28;20227;-81
2023/10/09 03:01:39;;;;;;;8.93;8.53;;;;;;;14.03;68.97;93434.88;5044015;28;20234;-81
2023/10/09 03:04:05;;;;;;;9.60;9.00;;;;;;;13.95;69.06;93415.28;5046052;28;20227;-81
2023/10/09 03:06:35;;;;;;;9.60;9.10;;;;;;;13.82;69.73;93402.81;5048253;28;20190;-80
2023/10/09 03:09:16;;;;;;;8.87;8.27;;;;;;;13.72;70.02;93410.78;5038793;28;20218;-81
2023/10/09 03:11:43;;;;;;;9.23;8.47;;;;;;;13.58;70.88;93412.50;5047965;28;20272;-80
2023/10/09 03:14:09;;;;;;;8.00;7.50;;;;;;;13.50;71.62;93413.09;5047467;28;20249;-81
2023/10/09 03:16:36;;;;;;;9.23;8.73;;;;;;;13.29;71.74;93419.56;5042023;28;20281;-81
2023/10/09 03:19:03;;;;;;;8.43;7.97;;;;;;;13.46;71.41;93435.72;5080841;28;20289;-81
2023/10/09 03:21:28;;;;;;;8.97;8.53;;;;;;;13.33;72.17;93433.72;5034485;28;20196;-81
2023/10/09 03:23:55;;;;;;;8.70;8.30;;;;;;;13.43;71.84;93451.97;5043926;28;20222;-81
2023/10/09 03:26:22;;;;;;;9.00;8.30;;;;;;;13.30;72.64;93457.06;5047818;28;20182;-74
2023/10/09 03:28:48;;;;;;;9.47;8.67;;;;;;;13.18;73.08;93449.56;5048217;28;20218;-74
2023/10/09 03:31:14;;;;;;;8.87;8.10;;;;;;;13.17;73.68;93461.09;5048834;28;20219;-75
2023/10/09 03:33:40;;;;;;;8.53;7.83;;;;;;;13.04;73.61;93459.09;5042496;28;20225;-79
2023/10/09 03:36:09;;;;;;;8.87;8.47;;;;;;;13.00;73.20;93458.06;5030384;28;20186;-81
2023/10/09 03:38:36;;;;;;;8.80;8.17;;;;;;;12.97;73.81;93453.34;5031837;28;20210;-80
2023/10/09 03:41:05;;;;;;;9.20;8.40;;;;;;;12.95;74.28;93460.69;5039889;28;20246;-75
2023/10/09 03:43:34;;;;;;;8.97;8.30;;;;;;;12.98;72.81;93452.28;5048214;28;20248;-77
2023/10/09 03:46:03;;;;;;;8.40;7.93;;;;;;;12.95;74.03;93463.28;5047356;28;20242;-76
2023/10/09 03:48:32;;;;;;;8.53;8.23;;;;;;;12.70;73.28;93427.56;5041465;28;20250;-76
2023/10/09 03:51:13;;;;;;;8.20;7.73;;;;;;;12.79;73.42;93474.94;5043220;28;20178;-76
2023/10/09 03:53:42;;;;;;;8.83;8.23;;;;;;;12.80;72.89;93476.50;5039060;28;20221;-77
2023/10/09 03:56:11;;;;;;;9.07;8.70;;;;;;;12.74;73.02;93477.59;5054775;28;20186;-79
2023/10/09 03:58:39;;;;;;;9.10;8.63;;;;;;;12.74;72.68;93464.47;5048454;28;20245;-76
2023/10/09 04:01:11;;;;;;;8.70;8.00;;;;;;;12.72;72.22;93477.06;5043835;28;20209;-78
2023/10/09 04:03:38;;;;;;;7.87;7.47;;;;;;;12.75;72.07;93468.66;5039230;28;20229;-82
2023/10/09 04:06:05;;;;;;;8.03;7.73;;;;;;;12.67;71.90;93469.22;5043229;28;20204;-76
2023/10/09 04:08:33;;;;;;;8.07;7.50;;;;;;;12.76;70.82;93475.47;5043158;28;20229;-81
2023/10/09 04:11:02;;;;;;;8.10;7.80;;;;;;;12.77;71.00;93484.91;5042191;28;20212;-86
2023/10/09 04:13:33;;;;;;;8.57;8.17;;;;;;;12.67;70.66;93477.88;5046729;28;20214;-82
2023/10/09 04:16:33;;;;;;;8.80;8.40;;;;;;;12.56;71.22;93459.88;5044469;28;20187;-78
2023/10/09 04:18:57;;;;;;;8.03;7.70;;;;;;;12.64;70.01;93469.75;5037775;28;20233;-74
2023/10/09 04:21:36;;;;;;;9.40;8.80;;;;;;;12.61;70.31;93476.34;5041203;28;20187;-75
2023/10/09 04:26:44;;;;;;;8.13;7.83;;;;;;;12.44;69.21;93469.84;5033379;28;20228;-77
2023/10/09 04:29:10;;;;;;;10.73;8.50;;;;;;;12.41;69.21;93471.19;5038049;28;20848;-82
2023/10/09 04:31:37;;;;;;;9.13;8.67;;;;;;;13.04;79.61;93469.59;5045569;28;20207;-77
2023/10/09 04:34:28;;;;;;;8.90;8.40;;;;;;;12.55;65.77;93474.78;5050217;28;20236;-74
2023/10/09 04:37:19;;;;;;;8.43;7.83;;;;;;;12.41;65.76;93475.63;5047447;28;20174;-75
2023/10/09 04:39:48;;;;;;;8.37;7.97;;;;;;;12.43;62.80;93478.78;5049309;28;20297;-75
2023/10/09 04:45:18;;;;;;;8.70;8.30;;;;;;;12.50;61.69;93474.81;5042045;28;20303;-74
2023/10/09 04:47:57;;;;;;;8.40;7.90;;;;;;;12.49;62.58;93467.22;5041795;28;20241;-74
2023/10/09 04:52:54;;;;;;;8.93;8.53;;;;;;;12.57;59.59;93480.56;5040513;28;20213;-76
2023/10/09 04:55:24;;;;;;;8.90;8.37;;;;;;;12.68;58.75;93476.81;5050299;28;20865;-76
2023/10/09 04:58:09;;;;;;;8.25;7.85;;;;;;;12.60;57.88;93485.25;5052352;28;20095;-76
2023/10/09 05:03:11;;;;;;;8.37;7.97;;;;;;;12.46;56.99;93483.47;5046551;28;20246;-75
2023/10/09 05:08:19;;;;;;;8.73;7.97;;;;;;;12.53;55.46;93495.22;5031759;28;20310;-76
2023/10/09 05:11:05;;;;;;;8.03;7.53;;;;;;;12.54;56.34;93502.06;5045654;28;20206;-75
2023/10/09 05:18:57;;;;;;;9.17;8.60;;;;;;;12.46;55.35;93514.91;5045458;28;20305;-77
2023/10/09 05:21:36;;;;;;;8.43;8.00;;;;;;;12.55;56.56;93502.81;5048712;28;20179;-77
2023/10/09 05:37:24;;;;;;;9.00;8.40;;;;;;;12.56;54.97;93543.69;5049159;28;20204;-75
2023/10/09 05:47:56;;;;;;;8.70;8.30;;;;;;;12.69;52.37;93548.34;5051780;28;20239;-75
2023/10/09 06:03:48;;;;;;;8.83;8.30;;;;;;;12.76;51.57;93578.44;5058359;28;20243;-74
2023/10/09 06:16:42;;;;;;;9.17;8.77;;;;;;;12.63;52.79;93589.50;5065086;28;20196;-74
2023/10/09 06:19:26;;;;;;;8.53;8.23;;;;;;;12.66;52.81;93611.75;5069320;28;20223;-75
2023/10/09 06:32:51;;;;;;;8.70;8.10;;;;;;;12.99;52.89;93619.00;5064542;28;20250;-74
2023/10/09 06:35:27;;;;;;;7.67;7.37;;;;;;;13.16;51.50;93611.63;5070715;28;20188;-74
2023/10/09 06:43:17;;;;;;;8.83;8.43;;;;;;;12.96;51.77;93612.44;5068284;28;20252;-75
2023/10/09 06:45:45;;;;;;;9.10;8.60;;;;;;;12.96;52.36;93607.19;5065159;28;20213;-75
2023/10/09 06:51:03;;;;;;;8.43;8.03;;;;;;;13.16;52.63;93590.63;5068442;28;20216;-75
2023/10/09 06:56:30;;;;;;;8.27;7.90;;;;;;;13.23;51.46;93612.09;5068899;28;20195;-76
2023/10/09 06:58:57;;;;;;;8.53;8.03;;;;;;;13.27;51.21;93605.28;5068516;28;20228;-75
2023/10/09 07:01:30;;;;;;;8.43;8.10;;;;;;;13.55;51.51;93599.34;5051267;28;20192;-74
2023/10/09 07:17:15;;;;;;;9.43;8.93;;;;;;;13.68;47.99;93601.34;5054315;28;20197;-75
2023/10/09 07:24:58;;;;;;;8.60;8.23;;;;;;;13.50;47.53;93588.06;5058804;28;20225;-75
2023/10/09 07:36:05;;;;;;;9.47;9.07;;;;;;;13.77;47.35;93614.69;5071048;28;20196;-75
2023/10/09 07:38:35;;;;;;;9.17;8.57;;;;;;;13.91;46.36;93598.03;5064027;28;20240;-76
2023/10/09 07:43:45;;;;;;;8.23;7.83;;;;;;;14.07;45.74;93594.22;5064894;28;20906;-75
2023/10/09 07:46:30;;;;;;;9.43;9.00;;;;;;;14.14;44.91;93596.53;5067735;28;20224;-76
2023/10/09 07:48:56;;;;;;;8.07;7.57;;;;;;;14.20;46.17;93604.09;5067874;28;20284;-76
2023/10/09 07:51:30;;;;;;;8.73;8.17;;;;;;;14.03;46.14;93614.22;5064448;28;20178;-75
2023/10/09 07:53:57;;;;;;;9.17;8.33;;;;;;;14.13;45.74;93616.75;5064797;28;20284;-75
2023/10/09 07:56:30;;;;;;;8.63;8.23;;;;;;;14.29;46.01;93607.72;5055654;28;20166;-75
2023/10/09 07:59:00;;;;;;;8.20;7.83;;;;;;;14.33;44.70;93613.97;5060705;28;20229;-75
2023/10/09 08:01:35;;;;;;;8.37;8.07;;;;;;;14.39;44.71;93607.66;5070003;28;20174;-76
2023/10/09 08:04:10;;;;;;;9.40;8.90;;;;;;;14.43;45.73;93611.28;5058450;28;20241;-76
2023/10/09 08:06:39;;;;;;;7.87;7.47;;;;;;;14.07;45.50;93573.22;5075958;28;20185;-75
2023/10/09 08:12:13;;;;;;;8.17;7.87;;;;;;;14.54;44.17;93634.84;5072697;28;20264;-76
2023/10/09 08:14:42;;;;;;;8.83;8.43;;;;;;;14.36;43.54;93625.78;5071061;28;20222;-76
2023/10/09 08:17:28;;;;;;;8.67;8.23;;;;;;;14.22;43.82;93615.13;5071520;28;20260;-75
2023/10/09 08:19:54;;;;;;;9.23;8.57;;;;;;;14.48;44.27;93608.59;5071544;28;20252;-75
2023/10/09 08:24:55;;;;;;;8.90;8.50;;;;;;;14.28;43.25;93611.41;5071265;28;20841;-75
2023/10/09 08:33:07;;;;;;;9.17;8.60;;;;;;;14.52;43.25;93615.94;5061519;28;20212;-75
2023/10/09 08:35:35;;;;;;;9.57;8.93;;;;;;;14.58;43.54;93609.56;5067385;28;20177;-74
2023/10/09 08:38:07;;;;;;;8.67;8.03;;;;;;;14.70;42.39;93594.97;5070742;28;20293;-75
2023/10/09 08:40:40;;;;;;;8.77;8.37;;;;;;;14.72;43.42;93584.19;5059412;28;20197;-77
2023/10/09 08:43:19;;;;;;;9.30;8.90;;;;;;;14.81;43.10;93587.75;5070228;28;20225;-75
2023/10/09 08:46:00;;;;;;;8.43;8.03;;;;;;;14.82;42.18;93584.09;5071020;28;20229;-76
2023/10/09 08:48:28;;;;;;;9.10;8.70;;;;;;;14.72;42.13;93571.03;5070137;28;20213;-75
2023/10/09 08:50:55;;;;;;;8.63;8.33;;;;;;;14.64;41.77;93577.69;5070874;28;20178;-76
2023/10/09 08:53:23;;;;;;;8.87;8.47;;;;;;;14.87;42.50;93584.00;5070668;28;20296;-76
2023/10/09 08:55:49;;;;;;;8.47;8.07;;;;;;;14.95;43.09;93570.25;5071019;28;20192;-77
2023/10/09 08:58:20;;;;;;;8.40;8.00;;;;;;;14.72;42.03;93568.41;5066030;28;20558;-75
2023/10/09 09:00:47;;;;;;;8.90;8.40;;;;;;;14.86;41.30;93574.56;5065072;28;20174;-75
2023/10/09 09:03:17;;;;;;;8.93;8.43;;;;;;;15.11;41.71;93566.38;5063170;28;20221;-76
2023/10/09 09:05:51;;;;;;;8.60;8.20;;;;;;;15.12;40.22;93567.94;5075445;28;20211;-76
2023/10/09 09:08:25;;;;;;;8.83;8.43;;;;;;;14.98;39.95;93578.34;5051650;28;20220;-76
2023/10/09 09:11:12;;;;;;;8.70;8.30;;;;;;;15.17;40.70;93570.50;5058924;28;20269;-74
2023/10/09 09:13:41;;;;;;;9.27;8.40;;;;;;;15.16;40.12;93561.06;5065736;28;20872;-75
2023/10/09 09:16:20;;;;;;;8.93;8.40;;;;;;;15.36;39.36;93579.19;5070635;28;20207;-76
2023/10/09 09:21:27;;;;;;;8.93;8.37;;;;;;;15.40;38.96;93586.28;5058977;28;20181;-75
2023/10/09 09:23:55;;;;;;;8.37;7.87;;;;;;;15.40;39.03;93577.59;5067808;28;21285;-75
2023/10/09 09:26:37;;;;;;;8.07;7.77;;;;;;;15.55;39.89;93577.38;5062563;28;20204;-75
2023/10/09 09:29:06;;;;;;;8.80;8.40;;;;;;;15.57;40.11;93577.88;5069780;28;20770;-75
2023/10/09 09:31:38;;;;;;;8.87;8.47;;;;;;;15.59;39.50;93575.75;5063605;28;20193;-75
2023/10/09 09:34:12;;;;;;;8.00;7.70;;;;;;;15.61;40.39;93576.25;5063259;28;20210;-76
2023/10/09 09:36:53;;;;;;;8.63;8.23;;;;;;;15.75;40.06;93579.72;5065267;28;20192;-73
2023/10/09 09:39:26;;;;;;;9.23;8.77;;;;;;;15.71;38.83;93568.19;5069402;28;20217;-75
2023/10/09 09:41:57;;;;;;;8.70;8.30;;;;;;;15.75;39.03;93556.03;5066968;28;20204;-75
2023/10/09 09:44:30;;;;;;;7.63;7.23;;;;;;;15.83;39.02;93558.78;5039530;28;20218;-76
2023/10/09 09:47:00;;;;;;;8.33;7.93;;;;;;;15.77;39.33;93569.69;5065585;28;20221;-75
2023/10/09 09:49:31;;;;;;;7.97;7.53;;;;;;;15.39;38.73;93521.53;5067017;28;20239;-75
2023/10/09 09:52:00;;;;;;;8.80;8.33;;;;;;;15.78;40.40;93550.19;5070587;28;20189;-75
2023/10/09 09:54:27;;;;;;;8.20;7.80;;;;;;;16.06;39.42;93570.28;5069431;28;20221;-76
2023/10/09 09:56:54;;;;;;;8.10;7.70;;;;;;;16.05;39.47;93566.06;5068764;28;20265;-80
2023/10/09 09:59:27;;;;;;;9.37;8.87;;;;;;;16.05;39.24;93560.81;5076891;28;20300;-81
2023/10/09 10:02:06;;;;;;;8.57;7.97;;;;;;;16.02;38.77;93551.63;5063401;28;20789;-80
2023/10/09 10:04:35;;;;;;;7.40;7.10;;;;;;;16.15;38.49;93544.84;5047616;28;20233;-79
2023/10/09 10:07:08;;;;;;;7.97;7.67;;;;;;;16.24;38.31;93544.94;5046683;28;20201;-80
2023/10/09 10:09:41;;;;;;;7.50;7.10;;;;;;;16.22;37.87;93534.69;5047124;28;20277;-76
2023/10/09 10:12:11;;;;;;;8.70;8.30;;;;;;;16.09;37.66;93530.19;5046698;28;20187;-78
2023/10/09 10:15:08;;;;;;;7.80;7.47;;;;;;;16.38;37.20;93522.81;5047729;28;20253;-78
2023/10/09 10:17:59;;;;;;;7.13;6.83;;;;;;;16.36;38.22;93517.06;5046249;28;20194;-80
2023/10/09 10:20:25;;;;;;;11.93;8.20;;;;;;;16.30;37.35;93510.31;5034438;28;20279;-79
2023/10/09 10:23:16;;;;;;;7.80;7.40;;;;;;;16.42;37.57;93512.50;5041280;28;20194;-79
2023/10/09 10:25:42;;;;;;;7.50;7.20;;;;;;;16.45;36.34;93507.41;5044074;28;20230;-80
2023/10/09 10:28:28;;;;;;;8.80;8.40;;;;;;;16.58;36.59;93503.22;5040327;28;20217;-77
2023/10/09 10:30:54;;;;;;;8.30;7.80;;;;;;;16.73;37.57;93501.06;5043079;28;20193;-78
2023/10/09 10:33:22;;;;;;;8.77;8.27;;;;;;;16.80;36.25;93498.84;5048415;28;20217;-81
2023/10/09 10:35:52;;;;;;;8.10;7.80;;;;;;;16.69;36.53;93496.69;5045207;28;20255;-81
2023/10/09 10:38:24;;;;;;;8.33;7.93;;;;;;;16.58;36.11;93482.94;5047397;28;20217;-80
2023/10/09 10:40:57;;;;;;;9.53;8.77;;;;;;;16.96;34.83;93476.38;5049490;28;20190;-79
2023/10/09 10:43:34;;;;;;;8.97;8.27;;;;;;;17.14;34.36;93466.72;5047809;28;20232;-78
2023/10/09 10:46:52;;;;;;;8.90;8.40;;;;;;;17.18;33.57;93484.31;5049004;28;20213;-79
2023/10/09 10:49:14;;;;;;;8.83;8.43;;;;;;;16.89;34.69;93469.91;5037063;28;20217;-78
2023/10/09 10:51:47;;;;;;;8.10;7.80;;;;;;;17.10;34.98;93460.50;5042384;28;20206;-77
2023/10/09 10:56:59;;;;;;;8.80;8.00;;;;;;;17.02;34.63;93458.56;5048478;28;20911;-79
2023/10/09 10:59:33;;;;;;;9.27;8.57;;;;;;;16.81;36.37;93460.06;5045799;28;20305;-77
2023/10/09 11:16:14;;;;;;;9.00;8.40;;;;;;;17.33;34.39;93449.66;5047766;28;20201;-79
2023/10/09 11:18:25;;;;;;;8.73;8.33;;;;;;;17.26;35.77;93435.34;5039413;28;20218;-81
2023/10/09 11:28:57;;;;;;;8.63;8.13;;;;;;;17.62;34.45;93407.03;5043121;28;20251;-79
2023/10/09 11:31:23;;;;;;;8.83;8.33;;;;;;;17.72;33.97;93400.72;5037460;28;20182;-78
2023/10/09 11:33:53;;;;;;;8.10;7.80;;;;;;;17.80;34.04;93394.69;5050334;28;20222;-79
2023/10/09 11:36:31;;;;;;;8.90;8.17;;;;;;;17.86;33.37;93396.13;5052089;28;20202;-78
2023/10/09 11:39:13;;;;;;;8.93;8.43;;;;;;;17.45;34.30;93396.34;5048349;28;20241;-79
2023/10/09 11:41:42;;;;;;;9.33;8.60;;;;;;;17.75;34.20;93402.75;5041355;28;20186;-80
2023/10/09 11:44:18;;;;;;;8.97;8.40;;;;;;;17.64;34.33;93402.22;5049618;28;20217;-77
2023/10/09 11:46:58;;;;;;;8.57;8.17;;;;;;;17.66;35.13;93381.59;5046113;28;20217;-79
2023/10/09 11:49:27;;;;;;;9.53;8.33;;;;;;;17.80;35.11;93397.34;5045123;28;20225;-80
2023/10/09 11:54:36;;;;;;;8.67;8.07;;;;;;;18.34;32.85;93381.06;5050087;28;20244;-79
2023/10/09 11:57:03;;;;;;;8.47;7.77;;;;;;;18.18;33.75;93387.88;5051497;28;20198;-79
2023/10/09 11:59:37;;;;;;;9.70;8.87;;;;;;;18.03;32.94;93361.84;5050963;28;20225;-80
2023/10/09 12:02:13;;;;;;;8.50;8.10;;;;;;;18.26;33.03;93352.75;5052834;28;20197;-79
2023/10/09 12:04:42;;;;;;;8.87;8.37;;;;;;;18.39;31.49;93352.69;5047236;28;20237;-79
2023/10/09 12:07:10;;;;;;;9.33;8.73;;;;;;;18.53;31.85;93349.91;5038187;28;20230;-80
2023/10/09 12:09:37;;;;;;;8.40;7.80;;;;;;;18.57;30.77;93348.19;5049172;28;20240;-80
2023/10/09 12:12:04;;;;;;;9.07;8.47;;;;;;;18.62;31.06;93337.44;5051689;28;20191;-80
2023/10/09 12:14:37;;;;;;;7.70;7.30;;;;;;;18.74;30.22;93332.34;5051871;28;20229;-80
2023/10/09 12:17:07;;;;;;;8.33;7.90;;;;;;;18.71;29.45;93317.84;5038465;28;20277;-80
2023/10/09 12:19:34;;;;;;;9.87;8.20;;;;;;;18.65;28.90;93319.09;5041311;28;20232;-80
2023/10/09 12:22:01;;;;;;;8.67;8.17;;;;;;;18.81;29.48;93325.50;5051507;28;20205;-79
2023/10/09 12:24:29;;;;;;;8.77;7.97;;;;;;;18.72;29.19;93322.06;5035766;28;20791;-79
2023/10/09 12:26:54;;;;;;;8.33;7.93;;;;;;;18.90;29.64;93323.63;5048067;28;20186;-79
2023/10/09 12:29:20;;;;;;;8.83;8.33;;;;;;;18.87;28.32;93329.53;5046631;28;20222;-80
2023/10/09 12:31:45;;;;;;;8.60;8.00;;;;;;;18.88;28.43;93320.50;5047538;28;20191;-81
2023/10/09 12:34:15;;;;;;;8.93;8.03;;;;;;;19.00;29.23;93325.94;5045663;28;20211;-80
2023/10/09 12:36:43;;;;;;;7.60;7.20;;;;;;;18.85;26.12;93309.75;5051070;28;20192;-81
2023/10/09 12:39:17;;;;;;;8.20;7.53;;;;;;;18.98;26.88;93309.63;5049082;28;20235;-80
2023/10/09 12:41:43;;;;;;;8.37;7.70;;;;;;;19.06;26.95;93308.84;5048710;28;20215;-81
2023/10/09 12:44:14;;;;;;;9.10;8.50;;;;;;;18.97;25.71;93302.00;5047575;28;20287;-80
2023/10/09 12:46:40;;;;;;;8.93;8.27;;;;;;;18.84;25.06;93290.47;5048594;28;20219;-80
2023/10/09 12:49:06;;;;;;;8.53;8.03;;;;;;;18.97;25.32;93299.34;5041862;28;20224;-81
2023/10/09 12:51:31;;;;;;;8.00;7.67;;;;;;;19.15;25.17;93298.22;5044144;28;20184;-81
2023/10/09 12:53:57;;;;;;;8.20;7.70;;;;;;;19.16;25.94;93294.47;5046299;28;20216;-81
2023/10/09 12:56:32;;;;;;;8.07;7.70;;;;;;;19.18;25.87;93292.31;5050843;28;20213;-81
2023/10/09 12:59:00;;;;;;;8.07;7.77;;;;;;;19.17;25.35;93290.75;5045083;28;20283;-81
2023/10/09 13:01:29;;;;;;;7.57;7.17;;;;;;;18.99;25.61;93284.69;5050087;28;20247;-81
2023/10/09 13:03:59;;;;;;;7.93;7.53;;;;;;;19.09;24.87;93280.94;5038417;28;20216;-81
2023/10/09 13:06:25;;;;;;;7.33;7.03;;;;;;;19.17;25.37;93285.47;5048411;28;20190;-81
2023/10/09 13:08:51;;;;;;;8.50;7.70;;;;;;;19.14;25.94;93281.56;5040516;28;20244;-77
2023/10/09 13:11:17;;;;;;;7.73;7.30;;;;;;;19.22;24.97;93266.78;5045480;28;20186;-82
2023/10/09 13:13:46;;;;;;;8.23;7.83;;;;;;;19.17;24.20;93274.88;5049794;28;20219;-81
2023/10/09 13:16:25;;;;;;;8.37;7.87;;;;;;;19.28;24.58;93270.03;5046284;28;20243;-80
2023/10/09 13:18:52;;;;;;;8.27;7.77;;;;;;;19.28;24.87;93254.16;5050519;28;20227;-80
2023/10/09 13:21:23;;;;;;;8.53;8.03;;;;;;;19.38;24.31;93259.88;5041264;28;20243;-80
2023/10/09 13:23:50;;;;;;;8.47;8.07;;;;;;;19.41;24.24;93258.50;5048370;28;20230;-81
2023/10/09 13:26:29;;;;;;;8.60;8.10;;;;;;;19.37;23.75;93258.34;5037107;28;20184;-82
2023/10/09 13:28:59;;;;;;;9.47;8.33;;;;;;;19.25;24.45;93249.47;5050111;28;20246;-80
2023/10/09 13:31:26;;;;;;;8.30;7.60;;;;;;;19.44;24.01;93250.66;5039205;28;20198;-81
2023/10/09 13:33:55;;;;;;;8.90;8.10;;;;;;;19.53;24.00;93246.16;5042538;28;20236;-79
2023/10/09 13:36:31;;;;;;;9.80;9.00;;;;;;;19.51;24.52;93237.72;5050131;28;20256;-80
2023/10/09 13:39:19;;;;;;;7.57;7.27;;;;;;;19.46;24.22;93245.84;5050259;28;20227;-80
2023/10/09 13:41:48;;;;;;;7.60;7.17;;;;;;;19.45;24.09;93243.50;5049515;28;20251;-81
2023/10/09 13:44:13;;;;;;;8.40;7.93;;;;;;;19.45;24.30;93232.91;5049105;28;20219;-80
2023/10/09 13:46:41;;;;;;;7.60;7.20;;;;;;;19.32;24.57;93216.13;5048519;28;20227;-81
2023/10/09 13:49:12;;;;;;;8.50;7.80;;;;;;;19.46;23.68;93240.53;5047522;28;20227;-78
2023/10/09 13:51:43;;;;;;;8.57;7.90;;;;;;;19.51;24.02;93243.03;5049403;28;20188;-81
2023/10/09 13:54:09;;;;;;;9.23;8.57;;;;;;;19.46;24.77;93242.41;5049600;28;20232;-80
2023/10/09 13:56:38;;;;;;;9.03;8.43;;;;;;;19.37;24.15;93231.06;5049344;28;20188;-79
2023/10/09 13:59:10;;;;;;;7.93;7.43;;;;;;;19.39;24.41;93226.25;5047954;28;20223;-80
2023/10/09 14:01:36;;;;;;;8.17;7.47;;;;;;;19.41;24.09;93230.13;5037215;28;20189;-81
2023/10/09 14:04:06;;;;;;;9.57;8.80;;;;;;;19.41;24.63;93227.47;5049229;28;20901;-78
2023/10/09 14:06:31;;;;;;;8.53;7.83;;;;;;;19.37;24.65;93210.69;5036268;28;20235;-81
2023/10/09 14:08:58;;;;;;;8.80;8.10;;;;;;;19.36;23.94;93216.28;5048031;28;20736;-81
2023/10/09 14:11:24;;;;;;;8.63;8.03;;;;;;;19.38;23.63;93222.06;5049155;28;20203;-81
2023/10/09 14:13:51;;;;;;;8.77;8.37;;;;;;;19.39;24.85;93231.53;5049393;28;20214;-81
2023/10/09 14:16:27;;;;;;;9.43;8.83;;;;;;;19.44;24.86;93224.19;5049494;28;20188;-80
2023/10/09 14:19:00;;;;;;;9.53;8.73;;;;;;;19.27;25.61;93232.16;5050087;28;20230;-81
2023/10/09 14:21:30;;;;;;;9.87;9.07;;;;;;;19.25;25.89;93229.06;5049490;28;20193;-81
2023/10/09 14:23:59;;;;;;;9.80;8.80;;;;;;;19.28;25.64;93228.47;5048170;28;20239;-81
2023/10/09 14:26:29;;;;;;;9.33;8.53;;;;;;;19.12;26.50;93233.47;5048552;28;20195;-80
2023/10/09 14:28:56;;;;;;;9.57;8.87;;;;;;;18.94;28.42;93233.81;5061612;28;20290;-81
2023/10/09 14:31:26;;;;;;;9.87;9.00;;;;;;;18.82;28.02;93228.38;5049621;28;20199;-82
2023/10/09 14:33:56;;;;;;;9.73;8.93;;;;;;;18.51;28.88;93225.91;5050497;28;20231;-80
2023/10/09 14:36:22;;;;;;;9.20;8.33;;;;;;;18.47;29.72;93224.19;5049663;28;20183;-80
2023/10/09 14:38:52;;;;;;;9.50;8.70;;;;;;;18.34;29.46;93225.09;5047641;28;20238;-80
2023/10/09 14:41:25;;;;;;;10.47;9.43;;;;;;;18.30;30.41;93224.16;5047601;28;20207;-80
2023/10/09 14:43:51;;;;;;;9.57;8.43;;;;;;;18.06;32.99;93219.31;5049234;28;20254;-80
2023/10/09 14:46:20;;;;;;;9.53;8.63;;;;;;;18.04;33.82;93212.78;5048743;28;20971;-79
2023/10/09 14:48:46;;;;;;;9.67;8.80;;;;;;;17.84;35.71;93216.78;5048721;28;20227;-79
2023/10/09 14:51:13;;;;;;;9.77;9.03;;;;;;;17.88;35.51;93209.03;5049016;28;20218;-80
2023/10/09 14:53:40;;;;;;;9.17;8.50;;;;;;;17.91;35.59;93203.91;5048599;28;20222;-80